createdAt,value
2019-05-17T00:01:46.868Z,41.27
2019-05-17T00:06:52.663Z,42.17
2019-05-17T00:11:57.919Z,42.37
2019-05-17T00:17:03.114Z,34.93
2019-05-17T00:22:08.625Z,32.70
2019-05-17T00:27:17.089Z,39.50
2019-05-17T00:32:22.607Z,42.77
2019-05-17T00:37:27.779Z,39.67
2019-05-17T00:42:33.062Z,38.10
2019-05-17T00:47:38.330Z,41.05
2019-05-17T00:52:47.242Z,38.30
2019-05-17T00:57:51.949Z,43.90
2019-05-17T01:02:57.414Z,43.97
2019-05-17T01:08:02.854Z,43.00
2019-05-17T01:13:08.390Z,42.30
2019-05-17T01:18:16.288Z,45.33
2019-05-17T01:23:22.618Z,46.63
2019-05-17T01:28:28.149Z,49.80
2019-05-17T01:33:33.314Z,48.27
2019-05-17T01:38:38.417Z,49.80
2019-05-17T01:43:44.054Z,47.40
2019-05-17T01:48:49.221Z,48.73
2019-05-17T01:53:57.350Z,52.23
2019-05-17T01:59:02.352Z,49.57
2019-05-17T02:04:07.533Z,49.93
2019-05-17T02:09:12.721Z,55.77
2019-05-17T02:14:18.272Z,56.58
2019-05-17T02:19:23.444Z,56.47
2019-05-17T02:24:28.637Z,58.57
2019-05-17T02:29:33.904Z,57.03
2019-05-17T02:34:39.069Z,53.00
2019-05-17T02:40:01.049Z,52.97
2019-05-17T02:44:53.191Z,55.40
2019-05-17T02:49:59.542Z,57.43
2019-05-17T02:55:05.519Z,52.77
2019-05-17T03:00:13.344Z,52.47
2019-05-17T03:05:18.618Z,51.93
2019-05-17T03:10:28.855Z,54.83
2019-05-17T03:15:32.475Z,53.60
2019-05-17T03:20:38.311Z,54.63
2019-05-17T03:25:44.089Z,54.00
2019-05-17T03:30:55.654Z,52.03
2019-05-17T03:35:57.775Z,55.20
2019-05-17T03:41:17.683Z,53.17
2019-05-17T03:46:13.636Z,56.43
2019-05-17T03:51:17.043Z,54.17
2019-05-17T03:56:22.652Z,55.23
2019-05-17T04:01:28.894Z,56.15
2019-05-17T04:06:34.618Z,56.27
2019-05-17T04:11:42.699Z,50.35
2019-05-17T04:16:46.772Z,48.80
2019-05-17T04:21:53.694Z,49.77
2019-05-17T04:26:59.211Z,49.73
2019-05-17T04:32:04.492Z,51.07
2019-05-17T04:37:12.915Z,48.20
2019-05-17T04:42:16.897Z,52.00
2019-05-17T04:47:23.236Z,44.87
2019-05-17T04:52:28.400Z,47.50
2019-05-17T04:57:33.911Z,42.77
2019-05-17T05:02:39.075Z,46.93
2019-05-17T05:07:44.542Z,47.17
2019-05-17T05:12:52.350Z,44.43
2019-05-17T05:17:56.674Z,46.48
2019-05-17T05:23:02.906Z,46.73
2019-05-17T05:28:08.089Z,45.67
2019-05-17T05:33:13.690Z,46.63
2019-05-17T05:38:18.856Z,49.40
2019-05-17T05:43:23.974Z,48.30
2019-05-17T05:48:32.368Z,49.23
2019-05-17T05:53:36.863Z,46.43
2019-05-17T05:58:42.798Z,46.33
2019-05-17T06:03:48.189Z,45.37
2019-05-17T06:08:54.575Z,44.53
2019-05-17T06:14:01.597Z,46.37
2019-05-17T06:19:06.717Z,44.93
2019-05-17T06:24:12.371Z,45.30
2019-05-17T06:29:18.901Z,44.03
2019-05-17T06:34:24.204Z,41.15
2019-05-17T06:39:29.598Z,38.73
2019-05-17T06:44:35.589Z,38.73
2019-05-17T06:49:42.358Z,38.37
2019-05-17T06:54:47.900Z,39.03
2019-05-17T06:59:53.303Z,40.08
2019-05-17T07:05:05.067Z,35.68
2019-05-17T07:10:11.186Z,34.43
2019-05-17T07:15:17.002Z,33.65
2019-05-17T07:20:23.370Z,33.50
2019-05-17T07:25:30.347Z,30.72
2019-05-17T07:30:35.738Z,32.20
2019-05-17T07:35:41.360Z,30.30
2019-05-17T07:40:46.907Z,31.40
2019-05-17T07:45:52.194Z,28.38
2019-05-17T07:50:59.346Z,27.82
2019-05-17T07:56:05.930Z,27.90
2019-05-17T08:01:11.017Z,24.85
2019-05-17T08:06:16.242Z,25.43
2019-05-17T08:11:21.527Z,26.65
2019-05-17T08:16:26.783Z,24.50
2019-05-17T08:21:32.083Z,27.60
2019-05-17T08:26:37.353Z,27.02
2019-05-17T08:31:42.615Z,27.35
2019-05-17T08:36:49.860Z,27.50
2019-05-17T08:41:54.896Z,26.35
2019-05-17T08:47:00.399Z,24.95
2019-05-17T08:52:05.654Z,22.13
2019-05-17T08:57:10.915Z,20.75
2019-05-17T09:02:19.732Z,19.90
2019-05-17T09:07:24.167Z,23.80
2019-05-17T09:12:30.018Z,22.20
2019-05-17T09:17:35.434Z,20.10
2019-05-17T09:22:40.704Z,20.30
2019-05-17T09:27:45.952Z,18.15
2019-05-17T09:32:53.884Z,19.05
2019-05-17T09:38:00.536Z,17.95
2019-05-17T09:43:09.854Z,20.32
2019-05-17T09:48:14.684Z,18.00
2019-05-17T09:53:20.283Z,19.12
2019-05-17T09:58:25.924Z,19.82
2019-05-17T10:03:31.194Z,17.25
2019-05-17T10:08:36.441Z,16.97
2019-05-17T10:13:41.700Z,16.48
2019-05-17T10:18:47.348Z,17.15
2019-05-17T10:23:52.988Z,13.62
2019-05-17T10:28:59.393Z,15.23
2019-05-17T10:34:04.717Z,14.73
2019-05-17T10:39:10.109Z,15.23
2019-05-17T10:44:15.349Z,17.45
2019-05-17T10:49:20.968Z,17.65
2019-05-17T10:54:26.221Z,17.98
2019-05-17T10:59:31.616Z,15.30
2019-05-17T11:04:36.881Z,16.23
2019-05-17T11:09:42.471Z,14.47
2019-05-17T11:14:55.845Z,13.68
2019-05-17T11:19:54.725Z,12.80
2019-05-17T11:24:59.966Z,11.70
2019-05-17T11:30:07.532Z,12.95
2019-05-17T11:35:12.895Z,9.43
2019-05-17T11:40:19.490Z,11.30
2019-05-17T11:45:29.074Z,10.20
2019-05-17T11:50:32.819Z,11.68
2019-05-17T11:55:38.230Z,8.85
2019-05-17T12:00:43.755Z,7.33
2019-05-17T12:05:49.365Z,8.25
2019-05-17T12:10:54.828Z,8.15
2019-05-17T12:16:00.555Z,7.42
2019-05-17T12:21:06.842Z,8.73
2019-05-17T12:26:12.081Z,8.35
2019-05-17T12:31:17.665Z,8.20
2019-05-17T12:36:23.270Z,10.75
2019-05-17T12:41:28.907Z,7.70
2019-05-17T12:46:34.144Z,8.05
2019-05-17T12:51:40.281Z,6.97
2019-05-17T12:56:45.532Z,7.53
2019-05-17T13:01:51.100Z,7.83
2019-05-17T13:06:56.702Z,7.37
2019-05-17T13:12:01.951Z,6.87
2019-05-17T13:17:07.215Z,6.85
2019-05-17T13:22:12.811Z,6.87
2019-05-17T13:27:18.104Z,7.00
2019-05-17T13:32:23.331Z,7.47
2019-05-17T13:37:28.562Z,6.42
2019-05-17T13:42:34.676Z,6.03
2019-05-17T13:47:39.945Z,6.20
2019-05-17T13:52:45.181Z,6.50
2019-05-17T13:57:51.230Z,7.10
2019-05-17T14:02:56.492Z,7.37
2019-05-17T14:08:01.737Z,8.85
2019-05-17T14:13:06.970Z,8.25
2019-05-17T14:18:12.244Z,8.18
2019-05-17T14:23:17.724Z,9.95
2019-05-17T14:28:22.974Z,7.58
2019-05-17T14:33:28.599Z,7.78
2019-05-17T14:38:33.865Z,7.20
2019-05-17T14:43:39.979Z,7.85
2019-05-17T14:48:46.053Z,9.93
2019-05-17T14:53:52.991Z,8.30
2019-05-17T14:58:58.134Z,8.15
2019-05-17T15:04:03.402Z,8.13
2019-05-17T15:09:11.540Z,7.55
2019-05-17T15:14:15.802Z,8.78
2019-05-17T15:19:21.170Z,7.97
2019-05-17T15:24:27.403Z,8.13
2019-05-17T15:29:33.090Z,9.30
2019-05-17T15:34:38.370Z,8.58
2019-05-17T15:39:43.918Z,7.55
2019-05-17T15:44:49.163Z,6.83
2019-05-17T15:49:54.561Z,8.18
2019-05-17T15:54:59.735Z,6.75
2019-05-17T16:00:05.732Z,7.08
2019-05-17T16:05:11.364Z,6.70
2019-05-17T16:10:17.228Z,6.55
2019-05-17T16:15:22.913Z,6.75
2019-05-17T16:20:28.175Z,5.45
2019-05-17T16:25:34.094Z,6.05
2019-05-17T16:30:39.422Z,6.55
2019-05-17T16:35:44.645Z,7.55
2019-05-17T16:40:50.251Z,7.03
2019-05-17T16:45:55.493Z,7.25
2019-05-17T16:51:01.096Z,6.28
2019-05-17T16:56:07.185Z,6.92
2019-05-17T17:01:12.434Z,6.97
2019-05-17T17:06:17.675Z,6.30
2019-05-17T17:11:22.913Z,7.25
2019-05-17T17:16:28.187Z,7.80
2019-05-17T17:21:34.241Z,7.50
2019-05-17T17:26:39.523Z,7.25
2019-05-17T17:31:45.283Z,7.65
2019-05-17T17:36:52.044Z,7.17
2019-05-17T17:41:57.291Z,8.68
2019-05-17T17:47:02.563Z,8.30
2019-05-17T17:52:07.813Z,7.95
2019-05-17T17:57:13.082Z,8.30
2019-05-17T18:02:18.326Z,6.22
2019-05-17T18:07:24.653Z,5.83
2019-05-17T18:12:30.326Z,6.78
2019-05-17T18:17:39.264Z,6.47
2019-05-17T18:22:42.973Z,8.33
2019-05-17T18:27:48.550Z,6.10
2019-05-17T18:32:53.798Z,6.00
2019-05-17T18:38:00.192Z,6.20
2019-05-17T18:43:05.627Z,6.35
2019-05-17T18:48:11.655Z,6.35
2019-05-17T18:53:17.435Z,6.50
2019-05-17T18:58:22.742Z,6.85
2019-05-17T19:03:27.984Z,6.50
2019-05-17T19:08:33.247Z,6.30
2019-05-17T19:13:38.900Z,6.85
2019-05-17T19:18:44.169Z,5.92
2019-05-17T19:23:49.721Z,6.17
2019-05-17T19:28:54.958Z,7.53
2019-05-17T19:34:00.343Z,6.00
2019-05-17T19:39:07.427Z,6.03
2019-05-17T19:44:12.839Z,7.85
2019-05-17T19:49:18.088Z,6.12
2019-05-17T19:54:23.645Z,6.53
2019-05-17T19:59:28.877Z,7.08
2019-05-17T20:04:34.117Z,6.40
2019-05-17T20:09:39.744Z,6.03
2019-05-17T20:14:45.006Z,8.28
2019-05-17T20:19:50.289Z,6.60
2019-05-17T20:24:55.632Z,6.60
2019-05-17T20:30:00.872Z,6.50
2019-05-17T20:35:08.407Z,6.20
2019-05-17T20:40:14.541Z,7.12
2019-05-17T20:45:32.085Z,6.47
2019-05-17T20:50:26.967Z,6.33
2019-05-17T20:55:32.543Z,6.20
2019-05-17T21:00:38.090Z,7.35
2019-05-17T21:05:44.306Z,7.62
2019-05-17T21:10:49.543Z,7.78
2019-05-17T21:15:54.779Z,10.48
2019-05-17T21:21:00.039Z,7.22
2019-05-17T21:26:05.555Z,10.45
2019-05-17T21:31:11.123Z,8.25
2019-05-17T21:36:16.354Z,8.95
2019-05-17T21:41:21.747Z,8.03
2019-05-17T21:46:28.154Z,7.80
2019-05-17T21:51:33.744Z,7.60
2019-05-17T21:56:40.624Z,7.65
2019-05-17T22:01:46.558Z,8.73
2019-05-17T22:06:52.094Z,8.30
2019-05-17T22:12:00.318Z,12.10
2019-05-17T22:17:05.724Z,10.32
2019-05-17T22:22:10.972Z,9.28
2019-05-17T22:27:16.208Z,8.85
2019-05-17T22:32:21.453Z,9.20
2019-05-17T22:37:27.040Z,8.75
2019-05-17T22:42:32.290Z,8.13
2019-05-17T22:47:37.816Z,9.55
2019-05-17T22:52:43.198Z,8.95
2019-05-17T22:57:48.429Z,9.33
2019-05-17T23:02:53.663Z,9.20
2019-05-17T23:07:59.080Z,11.28
2019-05-17T23:13:05.137Z,10.15
2019-05-17T23:18:10.661Z,10.15
2019-05-17T23:23:16.767Z,9.45
2019-05-17T23:28:21.993Z,9.73
2019-05-17T23:33:27.984Z,8.90
2019-05-17T23:38:34.310Z,9.33
2019-05-17T23:43:39.561Z,10.13
2019-05-17T23:48:45.264Z,9.60
2019-05-17T23:53:50.833Z,8.55
2019-05-17T23:58:56.092Z,9.88
